Řízení letového provozu České republiky
Letiste: LKMT Aktualizace: 18.08.2018 11:31:07  UTC
 METAR LKMT 18.08. 11:30 ...
METAR LKMT 181130Z 03005KT 330V110 CAVOK 28/13 Q1020 NOSIG RMK REG QNH 1017=
 TAF LKMT 18.08. 11:00 ...
TAF LKMT 181100Z 1812/1918 05006KT CAVOK      PROB30 TEMPO 1812/1818 SHRA SCT050CB      BECMG 1821/1823 VRB02KT      BECMG 1907/1909 05008KT      TEMPO 1910/1918 03014G25KT 7000 SHRA SCT050CB      PROB30 TEMPO 1912/1918 7000 TSRA BKN040CB=